Time;durP1;ratioP1;P1;durP2;ratioP2;P2;SDS_P1;SDS_P2;PMS_P1;PMS_P2;Temp;Humidity;BMP_temperature;BMP_pressure;BME280_temperature;BME280_humidity;BME280_pressure;Samples;Min_cycle;Max_cycle;Signal;HPM_P1;HPM_P2
2023/10/02 00:04:35;;;;;;;10.48;7.30;;;12.20;99.90;;;12.92;92.00;98653.75;10314396;28;20230;-69
2023/10/02 00:09:41;;;;;;;10.95;7.32;;;12.10;99.90;;;12.88;91.66;98654.34;10317041;28;20223;-68
2023/10/02 00:14:44;;;;;;;12.23;6.85;;;12.00;99.90;;;12.75;92.76;98647.59;10313383;28;20599;-70
2023/10/02 00:19:57;;;;;;;8.93;6.88;;;11.90;99.90;;;12.73;93.21;98649.16;10317465;28;20231;-70
2023/10/02 00:25:02;;;;;;;11.57;7.68;;;11.90;99.90;;;12.71;92.86;98646.53;10311502;28;20223;-69
2023/10/02 00:30:08;;;;;;;13.52;8.02;;;11.90;99.90;;;12.70;92.80;98643.84;10316819;28;20246;-71
2023/10/02 00:35:14;;;;;;;11.13;7.70;;;11.80;99.90;;;12.59;93.30;98646.66;10316154;28;20227;-69
2023/10/02 00:40:20;;;;;;;12.55;7.82;;;11.70;99.90;;;12.50;93.42;98640.94;10313861;28;20237;-68
2023/10/02 00:45:29;;;;;;;10.75;7.35;;;11.70;99.90;;;12.50;93.66;98638.38;10313173;28;20239;-69
2023/10/02 00:50:48;;;;;;;9.68;6.93;;;11.70;99.90;;;12.48;93.41;98641.66;10315036;28;20226;-69
2023/10/02 00:55:52;;;;;;;10.75;7.43;;;11.60;99.90;;;12.31;93.16;98643.19;10314579;28;20234;-70
2023/10/02 01:00:56;;;;;;;11.30;7.53;;;11.40;99.90;;;12.24;94.28;98646.13;10310857;28;20223;-69
2023/10/02 01:06:05;;;;;;;10.55;7.45;;;11.40;99.90;;;12.24;94.68;98646.13;10315162;28;20241;-69
2023/10/02 01:11:08;;;;;;;11.90;7.63;;;11.40;99.90;;;12.22;94.45;98642.56;10313654;28;20219;-69
2023/10/02 01:16:13;;;;;;;11.60;7.55;;;11.40;99.90;;;12.18;94.45;98642.38;10313450;28;20248;-70
2023/10/02 01:21:24;;;;;;;12.73;7.90;;;11.30;99.90;;;12.12;95.01;98630.88;10313342;28;20703;-69
2023/10/02 01:26:29;;;;;;;12.68;7.70;;;11.30;99.90;;;12.10;94.72;98635.00;10310220;28;20241;-69
2023/10/02 01:31:35;;;;;;;9.85;7.45;;;11.20;99.90;;;12.00;94.41;98625.84;10313717;28;20238;-70
2023/10/02 01:36:41;;;;;;;12.18;7.10;;;11.10;99.90;;;11.96;95.07;98629.03;10310633;28;20231;-69
2023/10/02 01:41:48;;;;;;;12.80;8.90;;;11.10;99.90;;;11.99;95.50;98615.50;10314374;28;20230;-69
2023/10/02 01:46:52;;;;;;;13.20;8.52;;;11.20;99.90;;;12.05;94.81;98629.59;10314744;28;20648;-69
2023/10/02 01:52:01;;;;;;;11.98;8.70;;;11.10;99.90;;;11.94;96.05;98617.78;10311309;28;20231;-69
2023/10/02 01:57:06;;;;;;;11.85;8.73;;;11.10;99.90;;;11.87;96.40;98616.47;10310283;28;20228;-69
2023/10/02 02:02:13;;;;;;;10.68;7.63;;;11.10;99.90;;;11.83;97.08;98616.16;10313753;28;20699;-70
2023/10/02 02:07:20;;;;;;;12.82;8.65;;;11.10;99.90;;;11.93;97.56;98615.97;10314162;28;20231;-69
2023/10/02 02:12:25;;;;;;;12.15;8.02;;;11.10;99.90;;;11.94;98.23;98615.22;10314719;28;20237;-69
2023/10/02 02:17:29;;;;;;;13.25;8.15;;;11.20;99.90;;;11.92;96.95;98606.53;10311654;28;20235;-69
2023/10/02 02:22:32;;;;;;;13.02;8.80;;;11.10;99.90;;;11.84;96.93;98602.56;10316941;28;20230;-69
2023/10/02 02:27:43;;;;;;;11.35;8.10;;;11.10;99.90;;;11.84;96.46;98611.13;10321908;28;20234;-69
2023/10/02 02:32:54;;;;;;;10.35;7.30;;;11.00;99.90;;;11.84;95.99;98613.69;10319729;28;20242;-69
2023/10/02 02:37:57;;;;;;;10.77;7.82;;;11.00;99.90;;;11.80;95.69;98613.41;10316389;28;20242;-69
2023/10/02 02:43:12;;;;;;;10.98;8.70;;;10.90;99.90;;;11.74;95.69;98616.47;10318863;28;20226;-69
2023/10/02 02:48:16;;;;;;;9.98;7.80;;;10.90;99.90;;;11.61;95.79;98607.09;10318155;28;20231;-69
2023/10/02 02:53:23;;;;;;;11.73;8.43;;;10.80;99.90;;;11.56;95.13;98607.56;10319733;28;20245;-69
2023/10/02 02:58:30;;;;;;;13.20;8.55;;;10.70;99.90;;;11.48;95.91;98613.09;10318641;28;20223;-70
2023/10/02 03:03:34;;;;;;;12.02;8.07;;;10.70;99.90;;;11.46;96.60;98614.66;10320601;28;20233;-69
2023/10/02 03:08:38;;;;;;;11.70;8.23;;;10.60;99.90;;;11.46;95.29;98613.78;10316748;28;20234;-69
2023/10/02 03:13:43;;;;;;;11.88;8.15;;;10.60;99.90;;;11.35;96.69;98604.50;10318938;28;20685;-69
2023/10/02 03:18:49;;;;;;;11.85;8.50;;;10.50;99.90;;;11.38;95.80;98607.25;10316385;28;20242;-69
2023/10/02 03:23:54;;;;;;;11.57;7.50;;;10.60;99.90;;;11.29;97.19;98610.09;10319661;28;20707;-69
2023/10/02 03:29:03;;;;;;;11.00;8.20;;;10.50;99.90;;;11.31;97.51;98611.09;10318790;28;20227;-68
2023/10/02 03:44:47;;;;;;;12.30;8.10;;;10.40;99.90;;;11.16;96.83;98604.94;10316939;28;20234;-69
2023/10/02 03:49:51;;;;;;;10.48;7.20;;;10.40;99.90;;;11.08;97.79;98598.44;10320460;28;20227;-69
2023/10/02 03:54:55;;;;;;;10.82;8.43;;;10.30;99.90;;;11.00;97.83;98603.03;10316444;28;20281;-69
2023/10/02 04:00:12;;;;;;;11.65;8.52;;;10.20;99.90;;;11.08;98.12;98604.44;10319511;28;20227;-68
2023/10/02 04:05:30;;;;;;;13.90;8.82;;;10.30;99.90;;;11.18;98.88;98603.38;10315584;28;20249;-69
2023/10/02 04:10:51;;;;;;;11.82;8.27;;;10.40;99.90;;;11.18;99.09;98605.94;10312955;28;20226;-69
2023/10/02 04:16:28;;;;;;;12.10;8.25;;;10.40;99.90;;;11.20;99.15;98606.94;10314205;28;21859;-70
2023/10/02 04:21:22;;;;;;;12.68;9.00;;;10.40;99.90;;;11.23;99.43;98605.47;10311484;28;20771;-69
2023/10/02 04:26:28;;;;;;;13.40;9.15;;;10.50;99.90;;;11.24;98.70;98616.56;10311581;28;20590;-70
2023/10/02 04:31:34;;;;;;;12.00;8.50;;;10.50;99.90;;;11.24;98.61;98611.47;10313557;28;20227;-69
2023/10/02 04:36:40;;;;;;;14.15;8.45;;;10.50;99.90;;;11.21;97.44;98621.50;10305677;28;20242;-69
2023/10/02 04:42:09;;;;;;;13.15;8.90;;;10.40;99.90;;;11.18;97.11;98632.41;10308146;28;20227;-68
2023/10/02 04:47:09;;;;;;;11.00;7.82;;;10.30;99.90;;;11.03;97.76;98616.03;10306582;28;20234;-69
2023/10/02 04:52:14;;;;;;;12.60;8.43;;;10.20;99.90;;;10.97;98.32;98630.97;10306100;28;20231;-69
2023/10/02 04:57:17;;;;;;;11.95;7.97;;;10.20;99.90;;;10.94;97.61;98631.66;10306331;28;20246;-68
2023/10/02 05:02:24;;;;;;;12.63;8.75;;;10.10;99.90;;;10.92;97.48;98624.66;10304547;28;20750;-69
2023/10/02 05:07:28;;;;;;;11.95;8.35;;;10.10;99.90;;;10.71;97.96;98630.09;10305627;28;20595;-69
2023/10/02 05:12:35;;;;;;;11.73;7.85;;;10.00;99.90;;;10.87;98.57;98628.56;10308256;28;20226;-69
2023/10/02 05:17:46;;;;;;;12.10;8.25;;;10.00;99.90;;;10.87;98.40;98623.44;10303747;28;20350;-69
2023/10/02 05:22:58;;;;;;;18.25;10.88;;;10.00;99.90;;;10.85;98.56;98627.59;10307434;28;20230;-68
2023/10/02 05:28:05;;;;;;;18.10;11.18;;;10.00;99.90;;;10.80;97.84;98630.72;10307167;28;20736;-69
2023/10/02 05:33:15;;;;;;;15.18;10.73;;;10.00;99.90;;;10.82;97.36;98628.28;10300933;28;20303;-69
2023/10/02 05:38:19;;;;;;;10.93;7.78;;;10.00;99.90;;;10.86;97.85;98635.34;10302560;28;20227;-69
2023/10/02 05:43:22;;;;;;;11.35;8.32;;;10.00;99.90;;;10.93;97.27;98644.31;10304655;28;20236;-69
2023/10/02 05:48:34;;;;;;;10.77;8.15;;;10.10;99.90;;;10.98;97.66;98637.84;10307680;28;20725;-69
2023/10/02 05:53:38;;;;;;;11.57;8.45;;;10.20;99.90;;;11.01;98.04;98645.75;10305765;28;20235;-68
2023/10/02 05:58:43;;;;;;;11.30;7.95;;;10.30;99.90;;;11.15;96.98;98641.56;10304248;28;20227;-69
2023/10/02 06:03:56;;;;;;;10.70;7.32;;;10.30;99.90;;;11.38;96.73;98636.28;10307478;28;20711;-68
2023/10/02 06:09:02;;;;;;;10.77;7.05;;;10.50;99.90;;;11.86;95.53;98647.13;10305190;28;20321;-68
2023/10/02 06:14:14;;;;;;;11.85;7.80;;;10.90;99.90;;;12.34;94.22;98649.38;10308529;28;20599;-69
2023/10/02 06:19:19;;;;;;;12.75;8.27;;;11.50;99.90;;;12.81;91.02;98647.97;10305984;28;20231;-68
2023/10/02 06:24:27;;;;;;;11.43;7.40;;;11.90;99.90;;;13.22;89.83;98641.84;10306687;28;20257;-69
2023/10/02 06:29:35;;;;;;;11.18;7.30;;;12.10;99.90;;;13.38;87.21;98644.56;10304769;28;20239;-69
2023/10/02 06:34:43;;;;;;;11.30;7.43;;;12.20;99.90;;;13.93;87.09;98647.75;10301010;28;20322;-68
2023/10/02 06:40:02;;;;;;;10.30;7.82;;;12.60;99.90;;;14.64;83.51;98647.41;10307136;28;20235;-69
2023/10/02 06:45:15;;;;;;;11.65;7.95;;;13.10;99.90;;;14.97;80.86;98641.41;10311568;28;20223;-68
2023/10/02 06:50:27;;;;;;;13.25;8.50;;;13.70;99.90;;;15.24;79.49;98647.97;10308755;28;20222;-68
2023/10/02 06:55:32;;;;;;;11.48;8.18;;;14.10;99.90;;;15.45;78.28;98637.91;10308989;28;20745;-69
2023/10/02 07:00:54;;;;;;;12.75;8.48;;;14.30;99.90;;;15.66;76.81;98642.34;10309380;28;20226;-68
2023/10/02 07:05:59;;;;;;;12.15;8.15;;;14.50;99.90;;;15.84;75.97;98640.69;10310091;28;20694;-70
2023/10/02 07:11:10;;;;;;;11.98;8.85;;;14.80;99.90;;;16.11;75.50;98646.31;10318037;28;20594;-69
2023/10/02 07:16:17;;;;;;;12.80;8.32;;;15.10;99.90;;;16.39;74.65;98648.50;10318414;28;20227;-69
2023/10/02 07:21:22;;;;;;;12.07;8.38;;;15.30;99.90;;;16.83;72.27;98638.50;10314366;28;20775;-65
2023/10/02 07:31:44;;;;;;;13.02;8.48;;;16.10;99.90;;;17.06;72.06;98635.22;10314771;28;20235;-65
2023/10/02 07:36:49;;;;;;;12.48;8.43;;;16.20;99.90;;;17.29;73.05;98635.34;10307265;28;20227;-65
2023/10/02 07:42:00;;;;;;;12.00;8.88;;;16.40;99.90;;;17.86;70.26;98630.00;10313562;28;20643;-65
2023/10/02 07:47:08;;;;;;;16.17;9.32;;;17.10;99.90;;;17.90;71.03;98631.88;10317848;28;20227;-65
2023/10/02 07:52:26;;;;;;;12.32;8.85;;;17.20;99.90;;;18.19;69.96;98626.16;10311026;28;20298;-65
2023/10/02 07:57:35;;;;;;;13.93;9.07;;;17.50;99.90;;;18.74;68.40;98624.81;10318970;28;20234;-65
2023/10/02 08:02:40;;;;;;;12.27;8.73;;;18.00;99.90;;;19.13;67.09;98611.56;10311896;28;20235;-65
2023/10/02 08:07:45;;;;;;;15.88;9.52;;;18.40;99.90;;;19.41;66.26;98615.13;10312735;28;20358;-66
2023/10/02 08:12:55;;;;;;;12.63;9.10;;;18.80;99.90;;;19.82;65.13;98615.66;10309632;28;20238;-65
2023/10/02 08:18:14;;;;;;;13.77;8.90;;;19.20;99.90;;;19.94;64.03;98610.84;10311879;28;20715;-66
2023/10/02 08:23:24;;;;;;;14.55;9.68;;;19.20;99.90;;;20.20;64.10;98602.19;10311533;28;20627;-65
2023/10/02 08:28:30;;;;;;;15.27;9.75;;;19.60;99.90;;;20.46;64.35;98599.50;10311158;28;20237;-65
2023/10/02 08:33:43;;;;;;;13.85;9.48;;;19.90;99.90;;;20.88;62.58;98596.41;10316445;28;20222;-65
2023/10/02 08:39:06;;;;;;;14.05;8.75;;;20.30;99.90;;;21.35;61.55;98594.22;10315245;28;20234;-66
2023/10/02 08:44:22;;;;;;;14.52;9.02;;;20.80;99.90;;;21.83;59.62;98598.91;10313879;28;20690;-66
2023/10/02 08:49:30;;;;;;;12.38;8.90;;;21.40;99.90;;;22.10;59.09;98583.09;10313865;28;20243;-65
2023/10/02 08:54:34;;;;;;;14.25;9.23;;;21.60;99.90;;;22.36;58.11;98578.50;10314843;28;20742;-65
2023/10/02 08:59:41;;;;;;;16.52;9.98;;;21.90;99.90;;;22.55;56.87;98577.19;10316202;28;20226;-66
2023/10/02 09:05:09;;;;;;;13.32;9.20;;;22.00;99.90;;;22.85;56.40;98566.47;10313695;28;20282;-66
2023/10/02 09:10:24;;;;;;;12.38;8.80;;;22.40;99.90;;;23.18;55.92;98565.41;10312639;28;20241;-66
2023/10/02 09:15:29;;;;;;;12.65;9.07;;;22.70;99.90;;;23.47;55.14;98565.91;10315272;28;20733;-65
2023/10/02 09:20:53;;;;;;;13.25;9.07;;;23.00;99.90;;;23.75;54.35;98566.38;10314310;28;20254;-66
2023/10/02 09:31:24;;;;;;;13.65;8.98;;;23.50;98.40;;;24.19;53.54;98550.53;10312443;28;20219;-66
2023/10/02 09:36:36;;;;;;;11.68;8.43;;;23.70;98.10;;;24.38;52.80;98549.03;10313370;28;20321;-66
2023/10/02 09:42:05;;;;;;;12.55;8.60;;;23.80;97.80;;;24.68;51.50;98544.22;10312451;28;20642;-66
2023/10/02 09:47:09;;;;;;;13.65;9.32;;;24.20;96.70;;;25.08;48.18;98539.44;10311043;28;20246;-66
2023/10/02 09:52:16;;;;;;;15.00;10.07;;;24.60;94.20;;;24.97;49.19;98538.44;10312309;28;20644;-66
2023/10/02 09:57:29;;;;;;;12.50;8.65;;;24.50;94.70;;;25.05;49.30;98526.31;10308438;28;20234;-66
2023/10/02 10:02:50;;;;;;;13.25;9.23;;;24.50;94.90;;;25.35;47.98;98524.88;10312910;28;20773;-66
2023/10/02 10:08:27;;;;;;;11.77;8.95;;;24.90;93.90;;;25.60;47.27;98510.25;10304227;28;20336;-66
2023/10/02 10:13:36;;;;;;;13.02;9.18;;;25.10;93.30;;;25.92;43.44;98507.88;10302201;28;20230;-66
2023/10/02 10:19:26;;;;;;;12.63;8.82;;;25.40;90.60;;;25.88;44.02;98500.03;10305184;28;20222;-67
2023/10/02 10:24:51;;;;;;;11.95;9.13;;;25.40;90.90;;;25.99;43.63;98499.22;10301689;28;20234;-67
2023/10/02 10:30:10;;;;;;;13.82;9.48;;;25.50;90.30;;;26.20;43.68;98492.34;10305562;28;20246;-67
2023/10/02 10:35:31;;;;;;;13.93;9.88;;;25.70;90.40;;;26.28;41.56;98480.13;10297360;28;20226;-67
2023/10/02 10:40:44;;;;;;;13.70;9.80;;;25.80;87.40;;;26.55;41.64;98483.75;10299660;28;20768;-67
2023/10/02 10:45:54;;;;;;;16.35;10.40;;;26.00;87.20;;;26.78;41.23;98471.59;10309932;28;20233;-67
2023/10/02 10:51:00;;;;;;;16.45;10.23;;;26.20;87.00;;;26.70;41.14;98465.47;10309824;28;20226;-67
2023/10/02 10:56:06;;;;;;;16.73;11.02;;;26.10;86.40;;;26.79;41.32;98462.00;10310634;28;20227;-68
2023/10/02 11:01:13;;;;;;;15.27;10.52;;;26.20;86.40;;;26.91;40.06;98462.00;10311222;28;20344;-67
2023/10/02 11:06:17;;;;;;;18.45;12.63;;;26.30;84.70;;;27.10;38.67;98468.13;10310581;28;20233;-67
2023/10/02 11:11:30;;;;;;;22.83;15.43;;;26.40;83.00;;;27.09;36.39;98462.00;10308837;28;20241;-67
2023/10/02 11:16:37;;;;;;;24.48;14.95;;;26.50;78.30;;;27.02;36.63;98456.78;10312017;28;21468;-67
2023/10/02 11:22:01;;;;;;;23.63;15.55;;;26.40;77.70;;;27.13;35.14;98455.03;10313090;28;20222;-66
2023/10/02 11:27:08;;;;;;;29.10;17.90;;;26.50;75.70;;;27.23;33.50;98450.69;10323828;28;20745;-66
2023/10/02 11:32:20;;;;;;;26.58;17.30;;;26.60;72.20;;;27.11;33.94;98438.41;10322883;28;20223;-67
2023/10/02 11:37:24;;;;;;;30.70;18.85;;;26.50;73.20;;;27.15;33.84;98432.25;10321823;28;20307;-66
2023/10/02 11:42:27;;;;;;;29.60;17.85;;;26.50;72.50;;;27.30;33.11;98436.66;10314385;28;21073;-66
2023/10/02 11:47:32;;;;;;;30.15;18.52;;;26.60;71.80;;;27.38;33.29;98419.16;10309148;28;20720;-66
2023/10/02 11:52:35;;;;;;;28.38;17.73;;;26.70;71.60;;;27.60;32.76;98420.00;10309944;28;20277;-66
2023/10/02 11:57:38;;;;;;;30.00;18.08;;;26.90;71.10;;;27.66;33.11;98409.47;10314661;28;20219;-66
2023/10/02 12:02:45;;;;;;;27.55;16.95;;;26.90;71.30;;;27.52;33.64;98398.13;10308549;28;20765;-66
2023/10/02 12:07:48;;;;;;;27.55;17.20;;;26.80;72.70;;;27.68;34.37;98391.97;10308066;28;20219;-66
2023/10/02 12:12:51;;;;;;;29.00;19.00;;;26.90;73.50;;;27.84;34.13;98390.19;10311712;28;20630;-66
2023/10/02 12:17:56;;;;;;;27.45;17.65;;;27.10;73.70;;;27.62;35.32;98384.09;10309144;28;20215;-66
2023/10/02 12:22:59;;;;;;;29.00;17.75;;;26.80;74.60;;;27.67;34.40;98377.09;10308164;28;20238;-66
2023/10/02 12:28:02;;;;;;;28.30;17.70;;;26.90;73.60;;;27.69;34.94;98372.69;10309604;28;20273;-66
2023/10/02 12:33:07;;;;;;;29.13;18.02;;;26.90;74.40;;;27.67;34.79;98363.97;10308076;28;20591;-66
2023/10/02 12:38:11;;;;;;;26.15;17.30;;;26.80;74.00;;;27.66;34.47;98358.69;10308490;28;20222;-66
2023/10/02 12:43:16;;;;;;;28.45;17.90;;;26.80;73.40;;;27.82;34.78;98358.69;10310450;28;20705;-66
2023/10/02 12:48:20;;;;;;;28.92;17.83;;;26.90;74.20;;;27.80;35.09;98357.78;10306579;28;20230;-66
2023/10/02 12:53:23;;;;;;;27.27;17.33;;;27.00;74.60;;;27.79;36.00;98340.28;10309876;28;20234;-65
2023/10/02 12:58:27;;;;;;;28.42;18.30;;;26.90;76.30;;;27.77;34.97;98334.13;10305335;28;20373;-66
2023/10/02 13:03:33;;;;;;;30.08;19.25;;;26.90;74.90;;;27.87;35.18;98328.88;10302492;28;20230;-66
2023/10/02 13:08:36;;;;;;;31.17;20.23;;;27.00;74.60;;;27.87;34.50;98319.22;10294253;28;20660;-66
2023/10/02 13:13:44;;;;;;;34.30;21.25;;;27.00;73.70;;;28.11;33.96;98325.25;10308755;28;20233;-66
2023/10/02 13:18:50;;;;;;;34.75;21.60;;;27.20;72.80;;;27.91;34.33;98318.34;10305978;28;20226;-66
2023/10/02 13:23:54;;;;;;;33.53;21.60;;;27.10;72.90;;;27.87;34.83;98313.09;10312289;28;20234;-66
2023/10/02 13:28:57;;;;;;;33.97;21.13;;;27.00;73.60;;;27.82;34.13;98303.50;10305569;28;20230;-66
2023/10/02 13:34:05;;;;;;;33.50;21.55;;;26.90;72.40;;;27.84;33.72;98298.22;10303247;28;20241;-66
2023/10/02 13:39:13;;;;;;;34.78;21.38;;;26.90;71.60;;;27.79;33.35;98281.63;10314920;28;20237;-66
2023/10/02 13:44:17;;;;;;;33.50;21.73;;;26.90;71.60;;;27.83;33.13;98278.94;10313057;28;20249;-66
2023/10/02 13:49:23;;;;;;;34.92;22.25;;;27.00;71.10;;;27.96;33.85;98277.16;10295979;28;20328;-66
2023/10/02 13:54:26;;;;;;;36.15;21.80;;;27.10;72.60;;;27.93;33.88;98265.75;10294713;28;20749;-66
2023/10/02 13:59:33;;;;;;;33.30;21.20;;;27.00;72.70;;;28.06;34.18;98259.56;10307794;28;20246;-66
2023/10/02 14:04:37;;;;;;;35.05;21.50;;;27.10;72.40;;;28.07;33.55;98261.28;10310505;28;20230;-66
2023/10/02 14:09:40;;;;;;;33.63;21.08;;;27.10;72.30;;;28.20;33.76;98252.44;10314699;28;20231;-66
2023/10/02 14:14:45;;;;;;;35.58;21.67;;;27.30;72.70;;;28.09;34.80;98249.00;10317031;28;20730;-66
2023/10/02 14:19:51;;;;;;;34.58;22.30;;;27.20;73.50;;;28.12;34.27;98246.38;10318625;28;20717;-66
2023/10/02 14:25:00;;;;;;;35.35;22.20;;;27.10;73.40;;;28.13;34.05;98240.25;10319874;28;20231;-66
2023/10/02 14:30:12;;;;;;;33.70;20.17;;;27.20;73.00;;;28.22;35.69;98242.78;10310299;28;20260;-66
2023/10/02 14:35:18;;;;;;;35.50;21.75;;;27.20;74.70;;;28.24;35.50;98237.50;10303616;28;20227;-67
2023/10/02 14:40:29;;;;;;;33.47;21.38;;;27.20;75.50;;;28.14;36.11;98241.97;10309201;28;20341;-66
2023/10/02 14:45:34;;;;;;;33.00;20.95;;;27.20;76.40;;;27.95;36.70;98228.06;10323664;28;20277;-66
2023/10/02 14:50:38;;;;;;;28.27;18.95;;;27.00;77.30;;;27.81;37.04;98233.44;10302124;28;20610;-66
2023/10/02 14:55:45;;;;;;;32.17;19.40;;;26.80;77.90;;;27.68;37.77;98228.22;10302924;28;20228;-66
2023/10/02 15:00:49;;;;;;;28.65;19.05;;;26.70;78.50;;;27.56;38.40;98237.03;10314231;28;20306;-66
2023/10/02 15:05:54;;;;;;;30.35;19.92;;;26.50;79.90;;;27.45;39.62;98225.72;10309056;28;20230;-66
2023/10/02 15:10:57;;;;;;;29.70;18.40;;;26.40;81.80;;;27.27;40.60;98224.91;10297010;28;20707;-65
2023/10/02 15:16:00;;;;;;;32.80;20.05;;;26.20;84.10;;;27.05;42.62;98220.56;10308797;28;20631;-66
2023/10/02 15:21:09;;;;;;;28.65;18.08;;;26.00;87.30;;;26.89;43.68;98220.59;10297831;28;20314;-66
2023/10/02 15:26:15;;;;;;;26.58;18.65;;;25.80;88.80;;;26.78;44.36;98221.50;10296421;28;20235;-65
2023/10/02 15:31:20;;;;;;;31.08;19.90;;;25.70;89.90;;;26.62;45.37;98218.03;10299679;28;20252;-66
2023/10/02 15:36:24;;;;;;;29.70;18.67;;;25.50;90.70;;;26.45;46.23;98216.25;10313134;28;20784;-66
2023/10/02 15:41:29;;;;;;;32.97;19.20;;;25.40;91.40;;;26.26;47.41;98214.50;10312849;28;20230;-66
2023/10/02 15:46:33;;;;;;;29.65;19.98;;;25.10;92.40;;;26.07;48.72;98213.66;10313450;28;20300;-66
2023/10/02 15:51:37;;;;;;;30.13;18.20;;;24.90;93.50;;;25.91;50.40;98220.59;10310185;28;20235;-66
2023/10/02 15:56:41;;;;;;;34.03;20.48;;;24.80;94.70;;;25.65;52.06;98219.63;10313413;28;20384;-66
2023/10/02 16:01:44;;;;;;;31.38;19.17;;;24.60;96.00;;;25.43;53.01;98219.56;10313957;28;22155;-66
2023/10/02 16:06:48;;;;;;;34.10;20.17;;;24.30;96.80;;;25.22;54.45;98219.47;10308373;28;20313;-66
2023/10/02 16:12:06;;;;;;;29.63;19.10;;;24.10;98.00;;;24.88;55.74;98219.25;10317817;28;20308;-67
2023/10/02 16:17:10;;;;;;;32.72;20.67;;;23.80;99.00;;;24.67;56.77;98215.66;10318173;28;20245;-66
2023/10/02 16:22:15;;;;;;;34.78;21.40;;;23.60;99.70;;;24.36;58.74;98216.25;10314437;28;20292;-66
2023/10/02 16:27:19;;;;;;;34.65;20.20;;;23.30;99.90;;;24.17;59.19;98210.00;10319004;28;20231;-66
2023/10/02 16:32:22;;;;;;;35.58;20.05;;;23.00;99.90;;;23.87;61.67;98210.59;10313757;28;20238;-66
2023/10/02 16:37:27;;;;;;;32.92;19.52;;;22.80;99.90;;;23.56;63.67;98221.56;10314435;28;20271;-66
2023/10/02 16:42:30;;;;;;;31.98;20.27;;;22.50;99.90;;;23.37;64.79;98217.84;10319933;28;20234;-66
2023/10/02 16:47:34;;;;;;;34.38;20.88;;;22.30;99.90;;;23.21;65.34;98220.25;10314629;28;20231;-66
2023/10/02 16:52:43;;;;;;;33.60;20.42;;;22.10;99.90;;;22.98;66.82;98227.75;10312985;28;20239;-66
2023/10/02 16:57:48;;;;;;;31.70;20.17;;;21.90;99.90;;;22.76;67.24;98227.44;10312747;28;20290;-66
2023/10/02 17:02:52;;;;;;;34.60;20.70;;;21.70;99.90;;;22.60;68.16;98233.25;10317622;28;20541;-66
2023/10/02 17:07:58;;;;;;;34.90;21.10;;;21.50;99.90;;;22.34;69.69;98228.50;10307802;28;20309;-66
2023/10/02 17:13:01;;;;;;;34.10;22.25;;;21.20;99.90;;;22.18;70.53;98231.75;10313918;28;20238;-66
2023/10/02 17:18:05;;;;;;;31.40;19.88;;;21.10;99.90;;;22.10;70.82;98233.28;10309475;28;20231;-67
2023/10/02 17:23:11;;;;;;;33.85;20.63;;;21.00;99.90;;;22.32;69.61;98232.84;10311743;28;20715;-66
2023/10/02 17:28:15;;;;;;;35.13;19.95;;;21.30;99.90;;;21.90;71.41;98236.41;10309185;28;20238;-66
2023/10/02 17:33:19;;;;;;;33.22;19.85;;;20.90;99.90;;;21.63;72.80;98241.09;10312553;28;20249;-66
2023/10/02 17:38:27;;;;;;;33.67;20.60;;;20.60;99.90;;;21.38;73.96;98240.63;10314286;28;20254;-66
2023/10/02 17:43:30;;;;;;;38.35;21.23;;;20.40;99.90;;;21.24;74.21;98247.22;10311609;28;20235;-68
2023/10/02 17:48:34;;;;;;;41.17;22.02;;;20.20;99.90;;;21.14;74.39;98236.59;10316537;28;20227;-67
2023/10/02 17:53:38;;;;;;;36.75;20.48;;;20.10;99.90;;;21.01;75.16;98233.72;10309921;28;20227;-67
2023/10/02 17:58:42;;;;;;;37.00;20.83;;;20.00;99.90;;;20.85;75.12;98222.97;10309174;28;20229;-68
2023/10/02 18:03:46;;;;;;;36.17;19.73;;;19.90;99.90;;;20.83;75.18;98221.19;10316342;28;20235;-68
2023/10/02 18:08:51;;;;;;;33.10;19.38;;;19.80;99.90;;;20.52;76.13;98223.06;10305332;28;20612;-66
2023/10/02 18:13:54;;;;;;;33.70;19.48;;;19.30;99.90;;;20.20;77.66;98219.69;10306628;28;20241;-66
2023/10/02 18:18:57;;;;;;;31.92;18.65;;;19.10;99.90;;;20.04;78.28;98213.25;10300507;28;20734;-67
2023/10/02 18:24:02;;;;;;;35.97;19.70;;;19.00;99.90;;;19.98;79.07;98213.97;10316821;28;20246;-66
2023/10/02 18:29:06;;;;;;;35.15;20.13;;;19.00;99.90;;;19.82;80.16;98205.75;10308024;28;20243;-66
2023/10/02 18:34:09;;;;;;;33.80;18.10;;;18.90;99.90;;;19.81;79.99;98210.06;10306663;28;20247;-67
2023/10/02 18:39:17;;;;;;;32.08;19.45;;;18.80;99.90;;;19.61;81.15;98214.69;10310915;28;20231;-68
2023/10/02 18:44:20;;;;;;;34.63;20.20;;;18.70;99.90;;;19.59;81.40;98221.53;10318152;28;20317;-66
2023/10/02 18:49:24;;;;;;;32.13;20.15;;;18.60;99.90;;;19.40;82.75;98217.56;10320379;28;20231;-66
2023/10/02 18:54:28;;;;;;;34.20;20.35;;;18.40;99.90;;;19.24;83.97;98229.19;10307111;28;20255;-67
2023/10/02 18:59:31;;;;;;;33.03;19.75;;;18.30;99.90;;;19.13;84.28;98221.09;10313731;28;20777;-68
2023/10/02 19:04:35;;;;;;;34.13;19.60;;;18.10;99.90;;;19.07;84.42;98225.25;10318816;28;20235;-66
2023/10/02 19:09:39;;;;;;;33.45;19.85;;;18.00;99.90;;;18.84;86.11;98217.66;10321456;28;20238;-67
2023/10/02 19:14:42;;;;;;;32.10;19.63;;;17.80;99.90;;;18.57;86.73;98209.91;10327241;28;20687;-65
2023/10/02 19:19:46;;;;;;;31.55;19.33;;;17.60;99.90;;;18.53;86.63;98217.53;10330840;28;20254;-66
2023/10/02 19:24:51;;;;;;;31.33;18.88;;;17.50;99.90;;;18.35;87.40;98210.94;10319636;28;20241;-66
2023/10/02 19:29:54;;;;;;;33.90;19.02;;;17.40;99.90;;;18.25;88.15;98216.63;10315555;28;20231;-68
2023/10/02 19:34:57;;;;;;;34.90;20.50;;;17.30;99.90;;;18.16;89.15;98216.34;10317687;28;20230;-64
2023/10/02 19:40:01;;;;;;;34.95;19.65;;;17.20;99.90;;;18.06;90.51;98210.00;10323457;28;20243;-65
2023/10/02 19:45:06;;;;;;;32.25;19.17;;;17.10;99.90;;;17.88;91.01;98214.53;10318533;28;20238;-66
2023/10/02 19:50:10;;;;;;;34.70;20.48;;;17.00;99.90;;;17.78;91.65;98205.59;10320224;28;22028;-66
2023/10/02 19:55:16;;;;;;;38.08;20.98;;;16.90;99.90;;;17.76;91.42;98205.47;10318918;28;20289;-66
2023/10/02 20:00:19;;;;;;;34.63;20.58;;;16.80;99.90;;;17.59;91.89;98205.75;10317962;28;20219;-65
2023/10/02 20:05:23;;;;;;;38.90;21.30;;;16.70;99.90;;;17.45;92.85;98203.53;10312602;28;20231;-69
2023/10/02 20:10:28;;;;;;;34.95;20.50;;;16.60;99.90;;;17.41;93.10;98196.50;10316413;28;20230;-64
2023/10/02 20:15:31;;;;;;;33.05;20.10;;;16.50;99.90;;;17.33;93.34;98200.53;10313334;28;20242;-69
2023/10/02 20:20:37;;;;;;;39.92;22.08;;;16.40;99.90;;;17.27;94.20;98203.75;10313754;28;20665;-69
2023/10/02 20:25:42;;;;;;;38.70;22.20;;;16.30;99.90;;;17.23;93.58;98191.56;10312753;28;20322;-64
2023/10/02 20:30:45;;;;;;;36.83;22.35;;;16.30;99.90;;;17.20;94.98;98190.59;10313458;28;20231;-65
2023/10/02 20:35:48;;;;;;;35.78;21.73;;;16.30;99.90;;;17.29;94.75;98196.09;10313036;28;20231;-69
2023/10/02 20:40:57;;;;;;;37.28;22.33;;;16.40;99.90;;;17.22;95.80;98199.25;10310515;28;20841;-65
2023/10/02 20:46:01;;;;;;;36.70;21.05;;;16.40;99.90;;;17.16;95.49;98193.88;10310304;28;20227;-69
2023/10/02 20:51:05;;;;;;;36.08;21.75;;;16.30;99.90;;;17.13;95.10;98183.44;10310254;28;20243;-64
2023/10/02 20:56:09;;;;;;;37.97;21.80;;;16.20;99.90;;;17.06;95.13;98196.13;10309787;28;20231;-68
2023/10/02 21:01:13;;;;;;;35.90;21.10;;;16.20;99.90;;;16.98;95.88;98184.63;10311095;28;20234;-68
2023/10/02 21:06:16;;;;;;;37.05;20.52;;;16.10;99.90;;;16.94;96.17;98187.94;10311414;28;20239;-65
2023/10/02 21:11:22;;;;;;;35.72;20.95;;;16.00;99.90;;;16.86;95.98;98185.06;10316005;28;20238;-69
2023/10/02 21:16:25;;;;;;;35.33;22.33;;;15.90;99.90;;;16.71;95.92;98188.72;10312350;28;20693;-67
2023/10/02 21:21:28;;;;;;;36.13;20.95;;;15.80;99.90;;;16.59;96.92;98190.00;10311595;28;20230;-67